Time;durP1;ratioP1;P1;durP2;ratioP2;P2;SDS_P1;SDS_P2;PMS_P1;PMS_P2;Temp;Humidity;BMP_temperature;BMP_pressure;BME280_temperature;BME280_humidity;BME280_pressure;Samples;Min_cycle;Max_cycle;Signal;HPM_P1;HPM_P2
2020/12/30 00:00:00;;;;;;;1.75;1.60;;;8.90;99.90;;;;;;5053264;28;20025;-76
2020/12/30 00:02:30;;;;;;;5.72;1.85;;;8.80;99.90;;;;;;5053016;28;20488;-76
2020/12/30 00:04:57;;;;;;;5.90;1.73;;;8.70;99.90;;;;;;5053100;28;20110;-76
2020/12/30 00:07:23;;;;;;;4.05;1.45;;;8.70;99.90;;;;;;5052944;28;20017;-75
2020/12/30 00:09:49;;;;;;;7.18;1.92;;;8.60;99.90;;;;;;5053094;28;20108;-76
2020/12/30 00:12:18;;;;;;;3.35;1.90;;;8.60;99.90;;;;;;5052939;28;20029;-76
2020/12/30 00:14:47;;;;;;;6.03;2.13;;;8.50;99.90;;;;;;5052677;28;20048;-75
2020/12/30 00:17:12;;;;;;;3.53;2.03;;;8.50;99.90;;;;;;5052719;28;20079;-75
2020/12/30 00:19:38;;;;;;;7.05;3.30;;;8.50;99.90;;;;;;5052744;28;20017;-74
2020/12/30 00:22:05;;;;;;;4.22;2.22;;;8.60;99.90;;;;;;5052681;28;20021;-74
2020/12/30 00:24:31;;;;;;;4.43;1.77;;;8.50;99.90;;;;;;5052304;28;20017;-76
2020/12/30 00:26:57;;;;;;;2.08;1.58;;;8.60;99.90;;;;;;5051896;28;20083;-74
2020/12/30 00:29:22;;;;;;;2.35;1.63;;;8.60;99.90;;;;;;5052175;28;20021;-75
2020/12/30 00:31:48;;;;;;;2.63;1.75;;;8.60;99.90;;;;;;5052308;28;20028;-75
2020/12/30 00:34:13;;;;;;;3.63;1.80;;;8.50;99.90;;;;;;5051152;28;20033;-75
2020/12/30 00:36:39;;;;;;;5.82;1.70;;;8.50;99.90;;;;;;5051516;28;20021;-74
2020/12/30 00:39:06;;;;;;;7.85;1.60;;;8.50;99.90;;;;;;5052531;28;20032;-74
2020/12/30 00:41:33;;;;;;;6.50;2.92;;;8.60;99.90;;;;;;5051784;28;20037;-75
2020/12/30 00:44:00;;;;;;;6.55;1.65;;;8.60;99.90;;;;;;5051973;28;20146;-75
2020/12/30 00:46:25;;;;;;;2.47;1.45;;;8.60;99.90;;;;;;5052219;28;20378;-75
2020/12/30 00:48:51;;;;;;;4.22;1.85;;;8.60;99.90;;;;;;5052052;28;20021;-75
2020/12/30 00:51:17;;;;;;;3.33;1.80;;;8.60;99.90;;;;;;5052494;28;20024;-75
2020/12/30 00:53:43;;;;;;;4.57;1.70;;;8.60;99.90;;;;;;5052236;28;20116;-75
2020/12/30 00:56:10;;;;;;;3.13;1.83;;;8.60;99.90;;;;;;5051766;28;20029;-76
2020/12/30 00:58:39;;;;;;;3.67;1.95;;;8.60;99.90;;;;;;5033958;28;20025;-75
2020/12/30 01:01:09;;;;;;;7.35;2.22;;;8.60;99.90;;;;;;5051887;28;20694;-75
2020/12/30 01:03:35;;;;;;;5.50;2.05;;;8.60;99.90;;;;;;5051720;28;20100;-75
2020/12/30 01:06:04;;;;;;;5.00;2.20;;;8.60;99.90;;;;;;5051715;28;20079;-75
2020/12/30 01:08:30;;;;;;;3.75;1.80;;;8.60;99.90;;;;;;5051435;28;20029;-75
2020/12/30 01:10:56;;;;;;;4.30;1.83;;;8.60;99.90;;;;;;5052023;28;20052;-74
2020/12/30 01:13:22;;;;;;;4.65;1.80;;;8.60;99.90;;;;;;5051994;28;20033;-75
2020/12/30 01:15:48;;;;;;;3.15;1.95;;;8.50;99.90;;;;;;5051912;28;20100;-75
2020/12/30 01:18:14;;;;;;;4.50;1.92;;;8.60;99.90;;;;;;5051983;28;20017;-76
2020/12/30 01:20:39;;;;;;;7.25;2.30;;;8.50;99.90;;;;;;5051801;28;20024;-74
2020/12/30 01:23:05;;;;;;;3.38;1.92;;;8.50;99.90;;;;;;5033977;28;20065;-75
2020/12/30 01:25:31;;;;;;;5.85;2.15;;;8.50;99.90;;;;;;5052058;28;20035;-76
2020/12/30 01:27:57;;;;;;;7.30;2.55;;;8.50;99.90;;;;;;5033690;28;20025;-75
2020/12/30 01:30:24;;;;;;;4.68;2.60;;;8.50;99.90;;;;;;5051945;28;20254;-75
2020/12/30 01:32:49;;;;;;;5.53;2.15;;;8.50;99.90;;;;;;5033360;28;20107;-75
2020/12/30 01:35:15;;;;;;;5.95;2.65;;;8.50;99.90;;;;;;5051894;28;20100;-75
2020/12/30 01:37:41;;;;;;;7.18;2.40;;;8.60;99.90;;;;;;5055872;28;20033;-75
2020/12/30 01:40:07;;;;;;;2.50;2.17;;;8.60;99.90;;;;;;5050708;28;20053;-75
2020/12/30 01:42:47;;;;;;;4.35;2.20;;;8.60;99.90;;;;;;5038798;28;20017;-75
2020/12/30 01:45:14;;;;;;;7.10;2.55;;;8.60;99.90;;;;;;5038326;28;20521;-75
2020/12/30 01:47:41;;;;;;;7.70;3.15;;;8.60;99.90;;;;;;5038220;28;20017;-76
2020/12/30 01:50:07;;;;;;;8.68;2.58;;;8.70;99.90;;;;;;5038433;28;20025;-76
2020/12/30 01:52:33;;;;;;;11.45;2.58;;;8.70;99.90;;;;;;5038141;28;20020;-76
2020/12/30 01:55:00;;;;;;;15.85;3.45;;;8.70;99.90;;;;;;5037860;28;20489;-76
2020/12/30 01:57:26;;;;;;;10.18;3.00;;;8.70;99.90;;;;;;5038607;28;20025;-76
2020/12/30 01:59:53;;;;;;;4.65;2.40;;;8.70;99.90;;;;;;5038596;28;20022;-75
2020/12/30 02:02:23;;;;;;;7.22;2.85;;;8.70;99.90;;;;;;5038392;28;20053;-76
2020/12/30 02:04:52;;;;;;;6.60;2.47;;;8.70;99.90;;;;;;5038482;28;20075;-76
2020/12/30 02:07:19;;;;;;;4.75;2.28;;;8.70;99.90;;;;;;5038144;28;20477;-76
2020/12/30 02:09:45;;;;;;;4.75;2.40;;;8.70;99.90;;;;;;5038408;28;20029;-75
2020/12/30 02:12:13;;;;;;;7.80;2.92;;;8.70;99.90;;;;;;5037928;28;20021;-76
2020/12/30 02:14:39;;;;;;;4.75;2.50;;;8.70;99.90;;;;;;5037902;28;20366;-75
2020/12/30 02:17:05;;;;;;;8.23;2.60;;;8.70;99.90;;;;;;5038018;28;20029;-75
2020/12/30 02:19:31;;;;;;;6.82;2.80;;;8.70;99.90;;;;;;5037980;28;20029;-75
2020/12/30 02:22:02;;;;;;;5.65;2.60;;;8.70;99.90;;;;;;5037839;28;20050;-75
2020/12/30 02:24:29;;;;;;;7.70;4.30;;;8.70;99.90;;;;;;5037771;28;20115;-75
2020/12/30 02:26:55;;;;;;;12.80;3.35;;;8.80;99.90;;;;;;5038196;28;20116;-76
2020/12/30 02:29:21;;;;;;;8.90;3.35;;;8.80;99.90;;;;;;5038035;28;20044;-76
2020/12/30 02:31:48;;;;;;;7.15;3.15;;;8.80;99.90;;;;;;5020160;28;20029;-76
2020/12/30 02:34:14;;;;;;;8.85;3.10;;;8.80;99.90;;;;;;5037792;28;20069;-75
2020/12/30 02:36:39;;;;;;;7.03;4.20;;;8.90;99.90;;;;;;5037912;28;20048;-76
2020/12/30 02:39:05;;;;;;;11.32;4.10;;;8.90;99.90;;;;;;5038054;28;20382;-76
2020/12/30 02:41:31;;;;;;;10.77;3.50;;;8.90;99.90;;;;;;5056552;28;20053;-76
2020/12/30 02:43:56;;;;;;;10.90;3.42;;;9.00;99.90;;;;;;5057791;28;20502;-75
2020/12/30 02:46:22;;;;;;;8.43;3.13;;;9.00;99.90;;;;;;5056647;28;20025;-75
2020/12/30 02:48:48;;;;;;;7.88;2.40;;;9.00;99.90;;;;;;5054834;28;20381;-76
2020/12/30 02:51:13;;;;;;;9.27;2.22;;;9.00;99.90;;;;;;5055006;28;20091;-76
2020/12/30 02:53:39;;;;;;;7.05;3.20;;;9.10;99.90;;;;;;5054557;28;20064;-75
2020/12/30 02:56:04;;;;;;;8.95;2.75;;;9.10;99.90;;;;;;5054416;28;20025;-76
2020/12/30 02:58:30;;;;;;;10.68;3.10;;;9.10;99.90;;;;;;5051957;28;20044;-75
2020/12/30 03:00:56;;;;;;;9.80;3.53;;;9.10;99.90;;;;;;5054037;28;20398;-76
2020/12/30 03:03:22;;;;;;;13.07;5.38;;;9.10;99.90;;;;;;5053559;28;20071;-76
2020/12/30 03:05:47;;;;;;;10.52;4.35;;;9.00;99.90;;;;;;5053865;28;20025;-75
2020/12/30 03:08:13;;;;;;;5.63;2.90;;;9.10;99.90;;;;;;5053613;28;20029;-75
2020/12/30 03:10:39;;;;;;;4.03;2.50;;;9.10;99.90;;;;;;5052454;28;20036;-75
2020/12/30 03:13:05;;;;;;;5.78;2.03;;;9.10;99.90;;;;;;5053587;28;20044;-76
2020/12/30 03:15:30;;;;;;;13.90;3.22;;;9.10;99.90;;;;;;5053469;28;20048;-76
2020/12/30 03:17:56;;;;;;;13.15;4.30;;;9.10;99.90;;;;;;5053491;28;20397;-74
2020/12/30 03:20:21;;;;;;;12.27;5.97;;;9.10;99.90;;;;;;5053637;28;20419;-75
2020/12/30 03:22:47;;;;;;;12.45;7.63;;;9.10;99.90;;;;;;5053072;28;20603;-75
2020/12/30 03:25:13;;;;;;;7.28;4.65;;;9.20;99.90;;;;;;5053227;28;20488;-76
2020/12/30 03:27:38;;;;;;;6.85;3.80;;;9.20;99.90;;;;;;5052837;28;20714;-75
2020/12/30 03:30:05;;;;;;;9.15;2.97;;;9.20;99.90;;;;;;5053102;28;20028;-74
2020/12/30 03:32:30;;;;;;;6.88;2.65;;;9.20;99.90;;;;;;5052620;28;20492;-74
2020/12/30 03:34:56;;;;;;;5.75;2.58;;;9.20;99.90;;;;;;5053354;28;20552;-76
2020/12/30 03:37:22;;;;;;;7.65;3.20;;;9.10;99.90;;;;;;5053388;28;20473;-76
2020/12/30 03:39:49;;;;;;;8.55;4.10;;;9.10;99.90;;;;;;5053115;28;20045;-76
2020/12/30 03:42:15;;;;;;;7.13;3.20;;;9.10;99.90;;;;;;5053424;28;20021;-75
2020/12/30 03:44:40;;;;;;;14.45;6.45;;;9.10;99.90;;;;;;5052626;28;20119;-75
2020/12/30 03:47:06;;;;;;;12.80;6.78;;;9.10;99.90;;;;;;5053215;28;20082;-75
2020/12/30 03:49:33;;;;;;;9.23;6.22;;;9.10;99.90;;;;;;5053182;28;20017;-75
2020/12/30 03:51:59;;;;;;;9.13;5.50;;;9.10;99.90;;;;;;5051397;28;20024;-75
2020/12/30 03:54:26;;;;;;;6.72;3.80;;;9.10;99.90;;;;;;5052265;28;20033;-74
2020/12/30 03:56:53;;;;;;;7.57;3.25;;;9.00;99.90;;;;;;5051742;28;20448;-75
2020/12/30 03:59:19;;;;;;;4.55;2.08;;;9.00;99.90;;;;;;5052915;28;20025;-75
2020/12/30 04:01:44;;;;;;;6.85;2.70;;;9.00;99.90;;;;;;5052762;28;20519;-75
2020/12/30 04:04:12;;;;;;;7.22;3.50;;;9.00;99.90;;;;;;5052774;28;20029;-75
2020/12/30 04:06:38;;;;;;;12.02;3.97;;;9.00;99.90;;;;;;5052475;28;20040;-75
2020/12/30 04:09:04;;;;;;;7.20;4.50;;;9.00;99.90;;;;;;5052461;28;20013;-74
2020/12/30 04:11:30;;;;;;;4.68;3.55;;;9.00;99.90;;;;;;5052856;28;20071;-75
2020/12/30 04:13:55;;;;;;;6.97;4.00;;;9.00;99.90;;;;;;5052339;28;20036;-75
2020/12/30 04:16:22;;;;;;;7.25;4.32;;;9.00;99.90;;;;;;5051996;28;20090;-75
2020/12/30 04:18:48;;;;;;;7.20;5.28;;;8.90;99.90;;;;;;5051789;28;20522;-75
2020/12/30 04:21:21;;;;;;;6.93;4.43;;;8.90;99.90;;;;;;5052407;28;20095;-75
2020/12/30 04:23:48;;;;;;;6.47;2.65;;;8.90;99.90;;;;;;5052229;28;20028;-75
2020/12/30 04:26:14;;;;;;;5.20;2.58;;;8.90;99.90;;;;;;5051933;28;20044;-75
2020/12/30 04:28:39;;;;;;;9.00;3.00;;;8.90;99.90;;;;;;5052569;28;20028;-75
2020/12/30 04:31:09;;;;;;;4.82;3.08;;;8.90;99.90;;;;;;5052332;28;20429;-75
2020/12/30 04:33:35;;;;;;;6.97;3.80;;;8.80;99.90;;;;;;5052737;28;20037;-75
2020/12/30 04:36:00;;;;;;;5.60;3.50;;;8.80;99.90;;;;;;5052103;28;20346;-75
2020/12/30 04:38:26;;;;;;;7.65;3.63;;;8.80;99.90;;;;;;5052758;28;20377;-74
2020/12/30 04:40:58;;;;;;;5.88;3.67;;;8.70;99.90;;;;;;5053552;28;20041;-75
2020/12/30 04:43:26;;;;;;;7.68;4.13;;;8.70;99.90;;;;;;5052334;28;20020;-75
2020/12/30 04:45:54;;;;;;;6.72;3.97;;;8.70;99.90;;;;;;5052371;28;20028;-75
2020/12/30 04:48:20;;;;;;;10.70;4.28;;;8.70;99.90;;;;;;5054791;28;20025;-74
2020/12/30 04:50:46;;;;;;;8.40;4.35;;;8.60;99.90;;;;;;5051859;28;20029;-74
2020/12/30 04:53:13;;;;;;;14.20;4.70;;;8.60;99.90;;;;;;5051769;28;20021;-74
2020/12/30 04:55:41;;;;;;;8.48;4.00;;;8.60;99.90;;;;;;5052129;28;20116;-75
2020/12/30 04:58:08;;;;;;;7.78;3.97;;;8.60;99.90;;;;;;5051467;28;20536;-74
2020/12/30 05:00:36;;;;;;;7.43;4.10;;;8.60;99.90;;;;;;5059064;28;20354;-74
2020/12/30 05:03:07;;;;;;;10.00;4.10;;;8.50;99.90;;;;;;5051846;28;20097;-75
2020/12/30 05:05:42;;;;;;;9.30;3.75;;;8.50;99.90;;;;;;5051777;28;20032;-75
2020/12/30 05:08:10;;;;;;;6.13;3.45;;;8.50;99.90;;;;;;5033740;28;20086;-75
2020/12/30 05:10:37;;;;;;;5.38;3.60;;;8.50;99.90;;;;;;5065874;28;20029;-75
2020/12/30 05:13:03;;;;;;;11.40;3.92;;;8.50;99.90;;;;;;5050831;28;20433;-74
2020/12/30 05:15:29;;;;;;;8.48;4.20;;;8.50;99.90;;;;;;5053381;28;20017;-75
2020/12/30 05:17:55;;;;;;;7.70;4.25;;;8.50;99.90;;;;;;5058435;28;20531;-74
2020/12/30 05:20:24;;;;;;;7.03;4.05;;;8.50;99.90;;;;;;5065339;28;20489;-75
2020/12/30 05:22:52;;;;;;;8.98;3.75;;;8.50;99.90;;;;;;5065269;28;20025;-75
2020/12/30 05:25:18;;;;;;;8.38;4.10;;;8.50;99.90;;;;;;5054606;28;20082;-75
2020/12/30 05:27:44;;;;;;;7.20;3.88;;;8.50;99.90;;;;;;5060164;28;20025;-75
2020/12/30 05:30:11;;;;;;;8.88;4.28;;;8.50;99.90;;;;;;5059678;28;20029;-74
2020/12/30 05:32:37;;;;;;;13.18;4.18;;;8.50;99.90;;;;;;5053049;28;20036;-74
2020/12/30 05:35:04;;;;;;;8.18;4.20;;;8.50;99.90;;;;;;5063316;28;20025;-75
2020/12/30 05:37:32;;;;;;;6.40;4.63;;;8.50;99.90;;;;;;5051009;28;20032;-75
2020/12/30 05:39:58;;;;;;;7.60;4.22;;;8.50;99.90;;;;;;5051347;28;20041;-75
2020/12/30 05:42:24;;;;;;;8.77;4.05;;;8.50;99.90;;;;;;5051388;28;20031;-75
2020/12/30 05:44:52;;;;;;;5.95;4.10;;;8.50;99.90;;;;;;5051246;28;20033;-75
2020/12/30 05:47:28;;;;;;;7.80;4.43;;;8.60;99.90;;;;;;5051826;28;20021;-75
2020/12/30 05:49:55;;;;;;;7.70;4.78;;;8.60;99.90;;;;;;5050844;28;20539;-75
2020/12/30 05:52:28;;;;;;;11.98;6.35;;;8.60;99.90;;;;;;5051406;28;20017;-75
2020/12/30 05:54:54;;;;;;;6.95;5.07;;;8.60;99.90;;;;;;5050854;28;20052;-75
2020/12/30 05:57:25;;;;;;;10.50;5.70;;;8.60;99.90;;;;;;5051181;28;20029;-74
2020/12/30 05:59:59;;;;;;;9.82;4.80;;;8.60;99.90;;;;;;5051053;28;20052;-74
2020/12/30 06:02:29;;;;;;;11.43;5.15;;;8.60;99.90;;;;;;5050741;28;20025;-75
2020/12/30 06:05:07;;;;;;;13.45;5.45;;;8.60;99.90;;;;;;5050961;28;20500;-75
2020/12/30 06:07:35;;;;;;;9.90;5.57;;;8.60;99.90;;;;;;5050773;28;20079;-75
2020/12/30 06:10:03;;;;;;;7.03;5.53;;;8.60;99.90;;;;;;5050991;28;20195;-75
2020/12/30 06:12:31;;;;;;;16.52;8.82;;;8.60;99.90;;;;;;5051124;28;20049;-75
2020/12/30 06:14:57;;;;;;;8.40;5.65;;;8.70;99.90;;;;;;5050783;28;20052;-76
2020/12/30 06:17:29;;;;;;;10.75;6.43;;;8.70;99.90;;;;;;5050429;28;20029;-75
2020/12/30 06:19:56;;;;;;;8.10;5.82;;;8.70;99.90;;;;;;5050962;28;20021;-75
2020/12/30 06:22:23;;;;;;;10.02;5.43;;;8.70;99.90;;;;;;5050725;28;20021;-75
2020/12/30 06:24:55;;;;;;;10.43;6.00;;;8.60;99.90;;;;;;5054905;28;20101;-75
2020/12/30 06:27:26;;;;;;;11.07;6.53;;;8.60;99.90;;;;;;5054653;28;20032;-74
2020/12/30 06:29:55;;;;;;;9.20;6.57;;;8.60;99.90;;;;;;5054955;28;20094;-75
2020/12/30 06:32:29;;;;;;;13.95;6.57;;;8.60;99.90;;;;;;5054936;28;20071;-75
2020/12/30 06:34:55;;;;;;;8.32;6.20;;;8.60;99.90;;;;;;5053232;28;20484;-76
2020/12/30 06:37:33;;;;;;;10.50;5.10;;;8.60;99.90;;;;;;5053712;28;20028;-76
2020/12/30 06:40:20;;;;;;;14.10;6.28;;;8.60;99.90;;;;;;5060250;28;20048;-76
2020/12/30 06:42:49;;;;;;;5.30;4.78;;;8.60;99.90;;;;;;5074894;28;20060;-76
2020/12/30 06:45:30;;;;;;;10.05;5.00;;;8.60;99.90;;;;;;5074193;28;20028;-76
2020/12/30 06:47:58;;;;;;;9.93;5.43;;;8.60;99.90;;;;;;5072368;28;20021;-75
2020/12/30 06:50:24;;;;;;;8.02;4.63;;;8.60;99.90;;;;;;5070736;28;20104;-78
2020/12/30 06:52:49;;;;;;;8.13;5.28;;;8.50;99.90;;;;;;5053512;28;20223;-76
2020/12/30 06:55:15;;;;;;;9.73;5.53;;;8.50;99.90;;;;;;5067662;28;20141;-76
2020/12/30 06:57:44;;;;;;;8.55;5.95;;;8.50;99.90;;;;;;5073612;28;20024;-76
2020/12/30 07:00:29;;;;;;;7.65;5.28;;;8.50;99.90;;;;;;5073442;28;20028;-76
2020/12/30 07:03:14;;;;;;;7.63;4.97;;;8.50;99.90;;;;;;5048858;28;20048;-75
2020/12/30 07:05:39;;;;;;;6.70;4.53;;;8.50;99.90;;;;;;5073328;28;20070;-75
2020/12/30 07:08:05;;;;;;;6.38;4.57;;;8.50;99.90;;;;;;5074090;28;20092;-73
2020/12/30 07:10:31;;;;;;;9.80;4.22;;;8.50;99.90;;;;;;5074479;28;20485;-76
2020/12/30 07:12:56;;;;;;;6.90;4.03;;;8.50;99.90;;;;;;5073029;28;20025;-75
2020/12/30 07:15:28;;;;;;;6.93;4.82;;;8.50;99.90;;;;;;5073730;28;20040;-76
2020/12/30 07:17:55;;;;;;;10.10;3.72;;;8.50;99.90;;;;;;5059482;28;20385;-75
2020/12/30 07:20:22;;;;;;;5.10;4.20;;;8.50;99.90;;;;;;5053735;28;20032;-76
2020/12/30 07:22:48;;;;;;;5.25;3.65;;;8.50;99.90;;;;;;5053966;28;20021;-76
2020/12/30 07:25:17;;;;;;;9.05;3.85;;;8.50;99.90;;;;;;5053222;28;20104;-76
2020/12/30 07:27:43;;;;;;;3.25;2.50;;;8.50;99.90;;;;;;5053113;28;20022;-76
2020/12/30 07:30:09;;;;;;;4.28;2.83;;;8.50;99.90;;;;;;5053294;28;20028;-75
2020/12/30 07:32:35;;;;;;;3.83;2.78;;;8.60;99.90;;;;;;5053683;28;20025;-75
2020/12/30 07:35:01;;;;;;;4.32;3.25;;;8.60;99.90;;;;;;5052790;28;20032;-74
2020/12/30 07:37:27;;;;;;;5.53;2.95;;;8.60;99.90;;;;;;5053309;28;20067;-75
2020/12/30 07:39:53;;;;;;;4.97;3.03;;;8.70;99.90;;;;;;5048052;28;20041;-75
2020/12/30 07:42:24;;;;;;;3.83;2.90;;;8.70;99.90;;;;;;5033219;28;20454;-75
2020/12/30 07:44:52;;;;;;;5.03;3.88;;;8.80;99.90;;;;;;5033419;28;20050;-75
2020/12/30 07:47:19;;;;;;;6.28;3.60;;;8.80;99.90;;;;;;5033429;28;20540;-75
2020/12/30 07:49:45;;;;;;;4.30;3.40;;;8.80;99.90;;;;;;5033664;28;20449;-75
2020/12/30 07:52:11;;;;;;;6.03;3.65;;;8.80;99.90;;;;;;5032920;28;20109;-75
2020/12/30 07:54:37;;;;;;;5.75;3.50;;;8.90;99.90;;;;;;5032743;28;20025;-75
2020/12/30 07:57:09;;;;;;;4.85;3.42;;;8.80;99.90;;;;;;5033360;28;20072;-75
2020/12/30 07:59:36;;;;;;;5.03;3.05;;;8.90;99.90;;;;;;5033246;28;20025;-75
2020/12/30 08:02:05;;;;;;;6.65;3.40;;;8.90;99.90;;;;;;5052823;28;20025;-75
2020/12/30 08:04:34;;;;;;;6.53;3.75;;;8.90;99.90;;;;;;5052976;28;20040;-75
2020/12/30 08:07:05;;;;;;;8.73;3.70;;;8.90;99.90;;;;;;5037938;28;20100;-75
2020/12/30 08:09:34;;;;;;;6.80;3.38;;;8.90;99.90;;;;;;5032883;28;20021;-75
2020/12/30 08:12:08;;;;;;;4.18;3.20;;;8.90;99.90;;;;;;5032888;28;20040;-74
2020/12/30 08:14:36;;;;;;;3.63;2.75;;;8.90;99.90;;;;;;5032749;28;20029;-74
2020/12/30 08:17:07;;;;;;;8.20;4.45;;;9.00;99.90;;;;;;5033040;28;20023;-74
2020/12/30 08:19:42;;;;;;;7.97;4.25;;;9.00;99.90;;;;;;5033247;28;20052;-74
2020/12/30 08:22:17;;;;;;;8.10;3.92;;;9.00;99.90;;;;;;5032782;28;20029;-74
2020/12/30 08:24:47;;;;;;;5.22;3.03;;;9.00;99.90;;;;;;5019914;28;20020;-74
2020/12/30 08:27:14;;;;;;;6.10;3.45;;;9.00;99.90;;;;;;5032789;28;20071;-75
2020/12/30 08:29:41;;;;;;;9.52;3.47;;;9.10;99.90;;;;;;5032627;28;20501;-75
2020/12/30 08:32:17;;;;;;;4.25;2.90;;;9.10;99.90;;;;;;5031733;28;20032;-73
2020/12/30 08:34:52;;;;;;;6.53;2.95;;;9.20;99.90;;;;;;5031314;28;20441;-74
2020/12/30 08:37:24;;;;;;;5.53;2.70;;;9.20;99.90;;;;;;5032214;28;20021;-75
2020/12/30 08:39:56;;;;;;;;;;;9.20;99.90;;;;;;5037859;28;20098;-76
2020/12/30 08:42:31;;;;;;;5.30;3.22;;;9.20;99.90;;;;;;5051647;28;19912;-77
2020/12/30 08:45:01;;;;;;;4.20;2.60;;;9.20;99.90;;;;;;5052183;28;20049;-76
2020/12/30 08:47:34;;;;;;;3.47;3.03;;;9.20;99.90;;;;;;5050277;28;20469;-76
2020/12/30 08:50:02;;;;;;;5.75;3.03;;;9.20;99.90;;;;;;5050571;28;20024;-76
2020/12/30 08:52:28;;;;;;;9.60;3.30;;;9.20;99.90;;;;;;5051328;28;20024;-77
2020/12/30 08:55:03;;;;;;;11.95;2.97;;;9.20;99.90;;;;;;5051302;28;20477;-76
2020/12/30 08:57:29;;;;;;;7.03;3.53;;;9.30;99.90;;;;;;5037197;28;20021;-76
2020/12/30 09:00:14;;;;;;;3.58;2.50;;;9.30;99.90;;;;;;5040840;28;20037;-76
2020/12/30 09:02:40;;;;;;;8.43;2.92;;;9.40;99.90;;;;;;5033286;28;20062;-77
2020/12/30 09:05:05;;;;;;;4.30;3.22;;;9.40;99.90;;;;;;5037471;28;20518;-75
2020/12/30 09:07:31;;;;;;;3.65;2.60;;;9.40;99.90;;;;;;5038841;28;20363;-76
2020/12/30 09:10:09;;;;;;;6.70;3.20;;;9.40;99.90;;;;;;5032834;28;20107;-75
2020/12/30 09:12:35;;;;;;;7.95;3.30;;;9.40;99.90;;;;;;5034374;28;20029;-77
2020/12/30 09:15:01;;;;;;;4.28;3.00;;;9.40;99.90;;;;;;5034033;28;20036;-76
2020/12/30 09:17:27;;;;;;;7.28;3.90;;;9.50;99.90;;;;;;5034089;28;20017;-75
2020/12/30 09:20:14;;;;;;;8.38;3.55;;;9.60;99.90;;;;;;5032006;28;20025;-76
2020/12/30 09:22:41;;;;;;;4.60;3.53;;;9.70;99.90;;;;;;5033951;28;20056;-76
2020/12/30 09:25:07;;;;;;;6.03;3.72;;;9.80;99.90;;;;;;5034565;28;20100;-76
2020/12/30 09:27:35;;;;;;;6.00;3.58;;;9.80;99.90;;;;;;5038119;28;20026;-76
2020/12/30 09:30:22;;;;;;;8.77;3.28;;;9.90;99.90;;;;;;5030670;28;20021;-77
2020/12/30 09:32:48;;;;;;;3.78;3.35;;;9.90;99.90;;;;;;5031477;28;20485;-77
2020/12/30 09:35:19;;;;;;;5.72;3.58;;;10.00;99.90;;;;;;5039350;28;20024;-76
2020/12/30 09:37:53;;;;;;;6.00;3.20;;;10.10;99.90;;;;;;5034331;28;20022;-77
2020/12/30 09:40:19;;;;;;;11.70;3.97;;;10.10;99.90;;;;;;5035687;28;20044;-76
2020/12/30 09:42:46;;;;;;;8.70;3.50;;;10.20;99.90;;;;;;5041623;28;20418;-76
2020/12/30 09:45:14;;;;;;;5.20;3.60;;;10.30;99.90;;;;;;5032976;28;20029;-75
2020/12/30 09:47:42;;;;;;;6.35;3.60;;;10.40;99.90;;;;;;5031650;28;20029;-76
2020/12/30 09:50:10;;;;;;;6.47;3.60;;;10.50;99.90;;;;;;5044189;28;20025;-76
2020/12/30 09:52:41;;;;;;;5.40;3.42;;;10.50;99.90;;;;;;5051337;28;20087;-76
2020/12/30 09:55:08;;;;;;;10.73;3.60;;;10.50;99.90;;;;;;5051101;28;20052;-76
2020/12/30 09:57:35;;;;;;;5.55;3.97;;;10.60;99.90;;;;;;5046192;28;20036;-76
2020/12/30 10:00:01;;;;;;;5.53;3.28;;;10.70;99.90;;;;;;5041347;28;20045;-75
2020/12/30 10:02:30;;;;;;;15.77;3.70;;;10.80;99.90;;;;;;5046737;28;20041;-77
2020/12/30 10:04:55;;;;;;;4.88;3.42;;;11.00;99.90;;;;;;5048634;28;20059;-77
2020/12/30 10:07:21;;;;;;;5.57;3.13;;;11.20;99.90;;;;;;5054155;28;20052;-76
2020/12/30 10:09:47;;;;;;;7.13;3.30;;;11.50;99.90;;;;;;5054178;28;20035;-76
2020/12/30 10:12:13;;;;;;;6.50;2.70;;;11.80;99.90;;;;;;5054986;28;20079;-76
2020/12/30 10:14:38;;;;;;;5.13;2.47;;;11.90;99.90;;;;;;5054970;28;20035;-76
2020/12/30 10:17:08;;;;;;;6.97;2.80;;;11.90;99.90;;;;;;5055327;28;20061;-75
2020/12/30 10:19:33;;;;;;;3.70;2.20;;;11.90;99.90;;;;;;5055462;28;20484;-76
2020/12/30 10:21:59;;;;;;;6.50;2.33;;;12.20;99.90;;;;;;5055359;28;20021;-76
2020/12/30 10:24:25;;;;;;;5.28;2.63;;;13.10;99.90;;;;;;5055156;28;20071;-76
2020/12/30 10:26:50;;;;;;;4.38;2.40;;;14.00;99.90;;;;;;5054990;28;20073;-77
2020/12/30 10:29:16;;;;;;;3.10;2.00;;;14.60;99.90;;;;;;5055117;28;20043;-77
2020/12/30 10:31:42;;;;;;;4.45;2.50;;;15.10;99.90;;;;;;5054765;28;20029;-76
2020/12/30 10:34:07;;;;;;;2.92;2.28;;;15.70;99.90;;;;;;5054635;28;20044;-77
2020/12/30 10:36:33;;;;;;;4.13;2.72;;;16.30;99.90;;;;;;5054763;28;20046;-77
2020/12/30 10:39:02;;;;;;;6.35;3.75;;;16.50;99.90;;;;;;5054728;28;20044;-76
2020/12/30 10:41:29;;;;;;;4.97;3.38;;;16.20;99.90;;;;;;5054610;28;20045;-76
2020/12/30 10:43:55;;;;;;;6.13;4.35;;;16.30;99.90;;;;;;5054758;28;20065;-77
2020/12/30 10:46:21;;;;;;;6.10;3.63;;;16.80;99.90;;;;;;5054307;28;20021;-77
2020/12/30 10:48:48;;;;;;;5.07;3.75;;;17.70;99.90;;;;;;5054699;28;20108;-76
2020/12/30 10:51:15;;;;;;;7.18;4.90;;;18.40;99.90;;;;;;5054747;28;20079;-76
2020/12/30 10:53:41;;;;;;;9.45;4.65;;;18.20;99.90;;;;;;5053713;28;20448;-76
2020/12/30 10:56:11;;;;;;;7.35;4.82;;;17.80;99.90;;;;;;5053400;28;20028;-76
2020/12/30 10:58:38;;;;;;;10.95;5.00;;;18.20;99.90;;;;;;5051508;28;20025;-76
2020/12/30 11:01:13;;;;;;;7.50;5.20;;;18.10;99.90;;;;;;5040344;28;20358;-76
2020/12/30 11:03:40;;;;;;;8.45;5.63;;;17.60;99.90;;;;;;5048635;28;20028;-77
2020/12/30 11:06:06;;;;;;;10.38;6.28;;;17.10;99.90;;;;;;5052443;28;20025;-77
2020/12/30 11:08:33;;;;;;;13.40;7.63;;;16.60;99.90;;;;;;5053279;28;20028;-76
2020/12/30 11:11:00;;;;;;;18.88;8.93;;;16.20;99.90;;;;;;5050760;28;20036;-76
2020/12/30 11:13:26;;;;;;;10.60;8.48;;;15.70;99.90;;;;;;5052860;28;20044;-77
2020/12/30 11:15:53;;;;;;;13.90;10.18;;;15.30;99.90;;;;;;5052960;28;20436;-77
2020/12/30 11:18:19;;;;;;;16.67;10.73;;;14.80;99.90;;;;;;5052935;28;20104;-77
2020/12/30 11:20:44;;;;;;;16.88;11.65;;;14.30;99.90;;;;;;5050429;28;20174;-76
2020/12/30 11:23:11;;;;;;;13.90;10.90;;;13.90;99.90;;;;;;5052216;28;20493;-77
2020/12/30 11:25:37;;;;;;;17.90;11.85;;;13.50;99.90;;;;;;5052246;28;20450;-77
2020/12/30 11:28:04;;;;;;;17.27;12.48;;;13.30;99.90;;;;;;5052066;28;20052;-77
2020/12/30 11:30:30;;;;;;;20.45;12.68;;;13.00;99.90;;;;;;5050229;28;20049;-76
2020/12/30 11:32:56;;;;;;;18.95;13.25;;;12.90;99.90;;;;;;5046145;28;20033;-77
2020/12/30 11:35:22;;;;;;;19.42;12.73;;;12.70;99.90;;;;;;5052897;28;20025;-78
2020/12/30 11:37:48;;;;;;;18.80;13.77;;;12.60;99.90;;;;;;5052993;28;20036;-77
2020/12/30 11:40:14;;;;;;;22.92;13.02;;;12.60;99.90;;;;;;5050784;28;20052;-76
2020/12/30 11:42:40;;;;;;;20.13;14.07;;;12.50;99.90;;;;;;5038514;28;20022;-76
2020/12/30 11:45:07;;;;;;;22.30;15.00;;;12.50;99.90;;;;;;5031849;28;20053;-77
2020/12/30 11:47:33;;;;;;;22.45;14.13;;;12.30;99.90;;;;;;5031710;28;20022;-75
2020/12/30 11:49:59;;;;;;;24.25;13.52;;;12.20;99.90;;;;;;5031921;28;20032;-77
2020/12/30 11:52:25;;;;;;;25.08;13.77;;;12.00;99.90;;;;;;5035860;28;20018;-77
2020/12/30 11:54:50;;;;;;;20.55;14.40;;;12.00;99.90;;;;;;5031026;28;20508;-76
2020/12/30 11:57:16;;;;;;;20.23;13.75;;;11.90;99.90;;;;;;5033320;28;20028;-77
2020/12/30 11:59:42;;;;;;;17.67;12.43;;;11.80;99.90;;;;;;5032279;28;20029;-78
2020/12/30 12:02:07;;;;;;;24.38;15.50;;;11.70;99.90;;;;;;5035172;28;20017;-79
2020/12/30 12:04:33;;;;;;;20.60;13.48;;;11.60;99.90;;;;;;5031815;28;20025;-77
2020/12/30 12:07:00;;;;;;;20.10;13.32;;;11.60;99.90;;;;;;5031297;28;20473;-78
2020/12/30 12:09:27;;;;;;;20.35;12.88;;;11.50;99.90;;;;;;5031411;28;20037;-81
2020/12/30 12:11:53;;;;;;;19.42;13.77;;;11.40;99.90;;;;;;5031869;28;20042;-77
2020/12/30 12:14:19;;;;;;;17.58;12.27;;;11.50;99.90;;;;;;5032488;28;20556;-77
2020/12/30 12:16:58;;;;;;;17.33;13.38;;;11.50;99.90;;;;;;5031372;28;20036;-77
2020/12/30 12:19:24;;;;;;;19.05;11.02;;;11.50;99.90;;;;;;5031327;28;20029;-77
2020/12/30 12:21:51;;;;;;;10.48;7.90;;;11.40;99.90;;;;;;5031273;28;20025;-77
2020/12/30 12:24:17;;;;;;;15.15;7.03;;;11.40;99.90;;;;;;5031513;28;20029;-77
2020/12/30 12:26:43;;;;;;;14.40;6.18;;;11.30;99.90;;;;;;5031415;28;20021;-77
2020/12/30 12:29:34;;;;;;;12.65;6.90;;;11.30;99.90;;;;;;5030166;28;20032;-76
2020/12/30 12:32:04;;;;;;;29.08;15.35;;;11.30;99.90;;;;;;5018645;28;20033;-77
2020/12/30 12:34:31;;;;;;;341.83;206.25;;;11.30;99.90;;;;;;5000018;28;20403;-77
2020/12/30 12:36:57;;;;;;;24.52;15.77;;;11.30;99.90;;;;;;5021027;28;20018;-77
2020/12/30 12:39:23;;;;;;;19.60;12.10;;;11.30;99.90;;;;;;5021349;28;20036;-76
2020/12/30 12:41:56;;;;;;;30.00;18.70;;;11.30;99.90;;;;;;5031010;28;20045;-77
2020/12/30 12:44:22;;;;;;;59.88;34.20;;;11.20;99.90;;;;;;5028458;28;20029;-76
2020/12/30 12:46:48;;;;;;;36.40;19.65;;;11.20;99.90;;;;;;5031134;28;20021;-77
2020/12/30 12:49:14;;;;;;;46.33;25.58;;;11.20;99.90;;;;;;5031023;28;20022;-77
2020/12/30 12:51:48;;;;;;;20.80;10.55;;;11.20;99.90;;;;;;5030842;28;20044;-76